sensor_id;sensor_type;location;lat;lon;timestamp;temperature;humidity
37050;DHT22;22958;51.232;6.826;2024-01-30T00:01:01;9.30;99.90
37050;DHT22;22958;51.232;6.826;2024-01-30T00:03:28;9.20;99.90
37050;DHT22;22958;51.232;6.826;2024-01-30T00:05:54;9.30;99.90
37050;DHT22;22958;51.232;6.826;2024-01-30T00:08:20;9.30;99.90
37050;DHT22;22958;51.232;6.826;2024-01-30T00:10:45;9.30;99.90
37050;DHT22;22958;51.232;6.826;2024-01-30T00:13:11;9.20;99.90
37050;DHT22;22958;51.232;6.826;2024-01-30T00:15:37;9.20;99.90
37050;DHT22;22958;51.232;6.826;2024-01-30T00:18:02;9.20;99.90
37050;DHT22;22958;51.232;6.826;2024-01-30T00:20:28;9.20;99.90
37050;DHT22;22958;51.232;6.826;2024-01-30T00:22:53;9.20;99.90
37050;DHT22;22958;51.232;6.826;2024-01-30T00:25:19;9.30;99.90
37050;DHT22;22958;51.232;6.826;2024-01-30T00:27:44;9.20;99.90
37050;DHT22;22958;51.232;6.826;2024-01-30T00:30:10;9.20;99.90
37050;DHT22;22958;51.232;6.826;2024-01-30T00:32:36;9.30;99.90
37050;DHT22;22958;51.232;6.826;2024-01-30T00:35:02;9.20;99.90
37050;DHT22;22958;51.232;6.826;2024-01-30T00:37:28;9.20;99.90
37050;DHT22;22958;51.232;6.826;2024-01-30T00:39:53;9.20;99.90
37050;DHT22;22958;51.232;6.826;2024-01-30T00:42:19;9.30;99.90
37050;DHT22;22958;51.232;6.826;2024-01-30T00:44:44;9.20;99.90
37050;DHT22;22958;51.232;6.826;2024-01-30T00:47:10;9.30;99.90
37050;DHT22;22958;51.232;6.826;2024-01-30T00:49:36;9.20;99.90
37050;DHT22;22958;51.232;6.826;2024-01-30T00:52:01;9.20;99.90
37050;DHT22;22958;51.232;6.826;2024-01-30T00:54:27;9.10;99.90
37050;DHT22;22958;51.232;6.826;2024-01-30T00:56:52;9.10;99.90
37050;DHT22;22958;51.232;6.826;2024-01-30T00:59:18;9.00;99.90
37050;DHT22;22958;51.232;6.826;2024-01-30T01:01:43;9.00;99.90
37050;DHT22;22958;51.232;6.826;2024-01-30T01:04:09;9.00;99.90
37050;DHT22;22958;51.232;6.826;2024-01-30T01:06:34;9.00;99.90
37050;DHT22;22958;51.232;6.826;2024-01-30T01:09:00;9.00;99.90
37050;DHT22;22958;51.232;6.826;2024-01-30T01:11:25;9.00;99.90
37050;DHT22;22958;51.232;6.826;2024-01-30T01:13:51;9.10;99.90
37050;DHT22;22958;51.232;6.826;2024-01-30T01:16:16;9.00;99.90
37050;DHT22;22958;51.232;6.826;2024-01-30T01:18:42;9.00;99.90
37050;DHT22;22958;51.232;6.826;2024-01-30T01:21:07;9.00;99.90
37050;DHT22;22958;51.232;6.826;2024-01-30T01:23:33;9.00;99.90
37050;DHT22;22958;51.232;6.826;2024-01-30T01:25:58;9.00;99.90
37050;DHT22;22958;51.232;6.826;2024-01-30T01:28:25;8.90;99.90
37050;DHT22;22958;51.232;6.826;2024-01-30T01:30:50;8.90;99.90
37050;DHT22;22958;51.232;6.826;2024-01-30T01:33:16;9.00;99.90
37050;DHT22;22958;51.232;6.826;2024-01-30T01:35:42;8.90;99.90
37050;DHT22;22958;51.232;6.826;2024-01-30T01:38:08;9.00;99.90
37050;DHT22;22958;51.232;6.826;2024-01-30T01:40:34;8.90;99.90
37050;DHT22;22958;51.232;6.826;2024-01-30T01:43:03;8.90;99.90
37050;DHT22;22958;51.232;6.826;2024-01-30T01:45:28;8.80;99.90
37050;DHT22;22958;51.232;6.826;2024-01-30T01:47:54;8.80;99.90
37050;DHT22;22958;51.232;6.826;2024-01-30T01:50:23;8.80;99.90
37050;DHT22;22958;51.232;6.826;2024-01-30T01:52:50;8.80;99.90
37050;DHT22;22958;51.232;6.826;2024-01-30T01:55:17;8.80;99.90
37050;DHT22;22958;51.232;6.826;2024-01-30T01:57:46;8.80;99.90
37050;DHT22;22958;51.232;6.826;2024-01-30T02:00:12;8.80;99.90
37050;DHT22;22958;51.232;6.826;2024-01-30T02:02:39;8.80;99.90
37050;DHT22;22958;51.232;6.826;2024-01-30T02:05:05;8.80;99.90
37050;DHT22;22958;51.232;6.826;2024-01-30T02:07:30;8.80;99.90
37050;DHT22;22958;51.232;6.826;2024-01-30T02:09:56;8.80;99.90
37050;DHT22;22958;51.232;6.826;2024-01-30T02:12:22;8.70;99.90
37050;DHT22;22958;51.232;6.826;2024-01-30T02:14:48;8.80;99.90
37050;DHT22;22958;51.232;6.826;2024-01-30T02:17:15;8.80;99.90
37050;DHT22;22958;51.232;6.826;2024-01-30T02:19:41;8.80;99.90
37050;DHT22;22958;51.232;6.826;2024-01-30T02:22:07;8.70;99.90
37050;DHT22;22958;51.232;6.826;2024-01-30T02:24:33;8.80;99.90
37050;DHT22;22958;51.232;6.826;2024-01-30T02:26:58;8.70;99.90
37050;DHT22;22958;51.232;6.826;2024-01-30T02:29:24;8.70;99.90
37050;DHT22;22958;51.232;6.826;2024-01-30T02:31:50;8.70;99.90
37050;DHT22;22958;51.232;6.826;2024-01-30T02:34:15;8.80;99.90
37050;DHT22;22958;51.232;6.826;2024-01-30T02:36:44;8.80;99.90
37050;DHT22;22958;51.232;6.826;2024-01-30T02:39:09;8.80;99.90
37050;DHT22;22958;51.232;6.826;2024-01-30T02:41:35;8.80;99.90
37050;DHT22;22958;51.232;6.826;2024-01-30T02:44:02;8.70;99.90
37050;DHT22;22958;51.232;6.826;2024-01-30T02:46:28;8.80;99.90
37050;DHT22;22958;51.232;6.826;2024-01-30T02:48:53;8.80;99.90
37050;DHT22;22958;51.232;6.826;2024-01-30T02:51:19;8.80;99.90
37050;DHT22;22958;51.232;6.826;2024-01-30T02:53:44;8.80;99.90
37050;DHT22;22958;51.232;6.826;2024-01-30T02:56:10;8.80;99.90
37050;DHT22;22958;51.232;6.826;2024-01-30T02:58:36;8.80;99.90
37050;DHT22;22958;51.232;6.826;2024-01-30T03:01:02;8.80;99.90
37050;DHT22;22958;51.232;6.826;2024-01-30T03:03:28;8.80;99.90
37050;DHT22;22958;51.232;6.826;2024-01-30T03:05:54;8.80;99.90
37050;DHT22;22958;51.232;6.826;2024-01-30T03:08:20;8.90;99.90
37050;DHT22;22958;51.232;6.826;2024-01-30T03:10:46;8.90;99.90
37050;DHT22;22958;51.232;6.826;2024-01-30T03:13:12;8.90;99.90
37050;DHT22;22958;51.232;6.826;2024-01-30T03:15:37;8.90;99.90
37050;DHT22;22958;51.232;6.826;2024-01-30T03:18:03;9.00;99.90
37050;DHT22;22958;51.232;6.826;2024-01-30T03:20:31;8.90;99.90
37050;DHT22;22958;51.232;6.826;2024-01-30T03:22:57;8.90;99.90
37050;DHT22;22958;51.232;6.826;2024-01-30T03:25:22;8.90;99.90
37050;DHT22;22958;51.232;6.826;2024-01-30T03:27:48;8.90;99.90
37050;DHT22;22958;51.232;6.826;2024-01-30T03:30:14;9.00;99.90
37050;DHT22;22958;51.232;6.826;2024-01-30T03:32:39;9.00;99.90
37050;DHT22;22958;51.232;6.826;2024-01-30T03:35:05;9.00;99.90
37050;DHT22;22958;51.232;6.826;2024-01-30T03:37:31;9.00;99.90
37050;DHT22;22958;51.232;6.826;2024-01-30T03:39:57;9.00;99.90
37050;DHT22;22958;51.232;6.826;2024-01-30T03:42:22;9.00;99.90
37050;DHT22;22958;51.232;6.826;2024-01-30T03:44:48;9.00;99.90
37050;DHT22;22958;51.232;6.826;2024-01-30T03:47:14;9.00;99.90
37050;DHT22;22958;51.232;6.826;2024-01-30T03:49:40;9.00;99.90
37050;DHT22;22958;51.232;6.826;2024-01-30T03:52:05;9.00;99.90
37050;DHT22;22958;51.232;6.826;2024-01-30T03:54:31;9.00;99.90
37050;DHT22;22958;51.232;6.826;2024-01-30T03:56:56;8.90;99.90
37050;DHT22;22958;51.232;6.826;2024-01-30T03:59:22;8.80;99.90
37050;DHT22;22958;51.232;6.826;2024-01-30T04:01:50;8.80;99.90
37050;DHT22;22958;51.232;6.826;2024-01-30T04:04:17;8.90;99.90
37050;DHT22;22958;51.232;6.826;2024-01-30T04:06:43;8.90;99.90
37050;DHT22;22958;51.232;6.826;2024-01-30T04:09:08;8.80;99.90
37050;DHT22;22958;51.232;6.826;2024-01-30T04:11:34;8.80;99.90
37050;DHT22;22958;51.232;6.826;2024-01-30T04:13:59;8.80;99.90
37050;DHT22;22958;51.232;6.826;2024-01-30T04:16:25;8.90;99.90
37050;DHT22;22958;51.232;6.826;2024-01-30T04:18:51;8.90;99.90
37050;DHT22;22958;51.232;6.826;2024-01-30T04:21:16;8.80;99.90
37050;DHT22;22958;51.232;6.826;2024-01-30T04:23:42;8.80;99.90
37050;DHT22;22958;51.232;6.826;2024-01-30T04:26:08;8.80;99.90
37050;DHT22;22958;51.232;6.826;2024-01-30T04:28:33;8.70;99.90
37050;DHT22;22958;51.232;6.826;2024-01-30T04:30:59;8.70;99.90
37050;DHT22;22958;51.232;6.826;2024-01-30T04:33:24;8.70;99.90
37050;DHT22;22958;51.232;6.826;2024-01-30T04:35:50;8.70;99.90
37050;DHT22;22958;51.232;6.826;2024-01-30T04:38:15;8.70;99.90
37050;DHT22;22958;51.232;6.826;2024-01-30T04:40:41;8.70;99.90
37050;DHT22;22958;51.232;6.826;2024-01-30T04:43:06;8.70;99.90
37050;DHT22;22958;51.232;6.826;2024-01-30T04:45:32;8.70;99.90
37050;DHT22;22958;51.232;6.826;2024-01-30T04:47:57;8.70;99.90
37050;DHT22;22958;51.232;6.826;2024-01-30T04:50:23;8.70;99.90
37050;DHT22;22958;51.232;6.826;2024-01-30T04:52:49;8.70;99.90
37050;DHT22;22958;51.232;6.826;2024-01-30T04:55:14;8.70;99.90
37050;DHT22;22958;51.232;6.826;2024-01-30T04:57:40;8.70;99.90
37050;DHT22;22958;51.232;6.826;2024-01-30T05:00:06;8.70;99.90
37050;DHT22;22958;51.232;6.826;2024-01-30T05:02:32;8.70;99.90
37050;DHT22;22958;51.232;6.826;2024-01-30T05:04:57;8.70;99.90
37050;DHT22;22958;51.232;6.826;2024-01-30T05:07:24;8.60;99.90
37050;DHT22;22958;51.232;6.826;2024-01-30T05:09:50;8.60;99.90
37050;DHT22;22958;51.232;6.826;2024-01-30T05:12:16;8.60;99.90
37050;DHT22;22958;51.232;6.826;2024-01-30T05:14:41;8.60;99.90
37050;DHT22;22958;51.232;6.826;2024-01-30T05:17:07;8.60;99.90
37050;DHT22;22958;51.232;6.826;2024-01-30T05:19:35;8.60;99.90
37050;DHT22;22958;51.232;6.826;2024-01-30T05:22:01;8.60;99.90
37050;DHT22;22958;51.232;6.826;2024-01-30T05:24:26;8.60;99.90
37050;DHT22;22958;51.232;6.826;2024-01-30T05:26:52;8.60;99.90
37050;DHT22;22958;51.232;6.826;2024-01-30T05:29:17;8.60;99.90
37050;DHT22;22958;51.232;6.826;2024-01-30T05:31:43;8.60;99.90
37050;DHT22;22958;51.232;6.826;2024-01-30T05:34:09;8.60;99.90
37050;DHT22;22958;51.232;6.826;2024-01-30T05:36:35;8.70;99.90
37050;DHT22;22958;51.232;6.826;2024-01-30T05:39:00;8.60;99.90
37050;DHT22;22958;51.232;6.826;2024-01-30T05:41:26;8.60;99.90
37050;DHT22;22958;51.232;6.826;2024-01-30T05:43:51;8.60;99.90
37050;DHT22;22958;51.232;6.826;2024-01-30T05:46:17;8.60;99.90
37050;DHT22;22958;51.232;6.826;2024-01-30T05:48:42;8.50;99.90
37050;DHT22;22958;51.232;6.826;2024-01-30T05:51:08;8.50;99.90
37050;DHT22;22958;51.232;6.826;2024-01-30T05:53:34;8.50;99.90
37050;DHT22;22958;51.232;6.826;2024-01-30T05:56:03;8.50;99.90
37050;DHT22;22958;51.232;6.826;2024-01-30T05:58:30;8.60;99.90
37050;DHT22;22958;51.232;6.826;2024-01-30T06:00:56;8.50;99.90
37050;DHT22;22958;51.232;6.826;2024-01-30T06:03:22;8.40;99.90
37050;DHT22;22958;51.232;6.826;2024-01-30T06:05:48;8.40;99.90
37050;DHT22;22958;51.232;6.826;2024-01-30T06:08:13;8.50;99.90
37050;DHT22;22958;51.232;6.826;2024-01-30T06:10:39;8.50;99.90
37050;DHT22;22958;51.232;6.826;2024-01-30T06:13:04;8.50;99.90
37050;DHT22;22958;51.232;6.826;2024-01-30T06:15:30;8.50;99.90
37050;DHT22;22958;51.232;6.826;2024-01-30T06:17:56;8.50;99.90
37050;DHT22;22958;51.232;6.826;2024-01-30T06:20:21;8.50;99.90
37050;DHT22;22958;51.232;6.826;2024-01-30T06:22:46;8.50;99.90
37050;DHT22;22958;51.232;6.826;2024-01-30T06:25:12;8.40;99.90
37050;DHT22;22958;51.232;6.826;2024-01-30T06:27:38;8.50;99.90
37050;DHT22;22958;51.232;6.826;2024-01-30T06:30:04;8.60;99.90
37050;DHT22;22958;51.232;6.826;2024-01-30T06:32:30;8.50;99.90
37050;DHT22;22958;51.232;6.826;2024-01-30T06:35:02;8.60;99.90
37050;DHT22;22958;51.232;6.826;2024-01-30T06:37:28;8.50;99.90
37050;DHT22;22958;51.232;6.826;2024-01-30T06:39:53;8.60;99.90
37050;DHT22;22958;51.232;6.826;2024-01-30T06:42:19;8.60;99.90
37050;DHT22;22958;51.232;6.826;2024-01-30T06:44:45;8.60;99.90
37050;DHT22;22958;51.232;6.826;2024-01-30T06:47:10;8.60;99.90
37050;DHT22;22958;51.232;6.826;2024-01-30T06:49:36;8.60;99.90
37050;DHT22;22958;51.232;6.826;2024-01-30T06:52:07;8.70;99.90
37050;DHT22;22958;51.232;6.826;2024-01-30T06:54:33;8.70;99.90
37050;DHT22;22958;51.232;6.826;2024-01-30T06:56:59;8.60;99.90
37050;DHT22;22958;51.232;6.826;2024-01-30T06:59:25;8.80;99.90
37050;DHT22;22958;51.232;6.826;2024-01-30T07:01:51;8.70;99.90
37050;DHT22;22958;51.232;6.826;2024-01-30T07:04:16;8.70;99.90
37050;DHT22;22958;51.232;6.826;2024-01-30T07:06:42;8.80;99.90
37050;DHT22;22958;51.232;6.826;2024-01-30T07:09:08;8.80;99.90
37050;DHT22;22958;51.232;6.826;2024-01-30T07:11:34;8.80;99.90
37050;DHT22;22958;51.232;6.826;2024-01-30T07:13:59;8.80;99.90
37050;DHT22;22958;51.232;6.826;2024-01-30T07:16:25;8.70;99.90
37050;DHT22;22958;51.232;6.826;2024-01-30T07:18:51;8.70;99.90
37050;DHT22;22958;51.232;6.826;2024-01-30T07:21:16;8.70;99.90
37050;DHT22;22958;51.232;6.826;2024-01-30T07:23:42;8.70;99.90
37050;DHT22;22958;51.232;6.826;2024-01-30T07:26:08;8.70;99.90
37050;DHT22;22958;51.232;6.826;2024-01-30T07:28:34;8.70;99.90
37050;DHT22;22958;51.232;6.826;2024-01-30T07:31:01;8.80;99.90
37050;DHT22;22958;51.232;6.826;2024-01-30T07:33:26;8.80;99.90
37050;DHT22;22958;51.232;6.826;2024-01-30T07:35:53;8.80;99.90
37050;DHT22;22958;51.232;6.826;2024-01-30T07:38:18;8.90;99.90
37050;DHT22;22958;51.232;6.826;2024-01-30T07:40:44;8.80;99.90
37050;DHT22;22958;51.232;6.826;2024-01-30T07:43:10;8.80;99.90
37050;DHT22;22958;51.232;6.826;2024-01-30T07:45:35;8.80;99.90
37050;DHT22;22958;51.232;6.826;2024-01-30T07:48:02;8.80;99.90
37050;DHT22;22958;51.232;6.826;2024-01-30T07:50:28;8.80;99.90
37050;DHT22;22958;51.232;6.826;2024-01-30T07:52:56;8.90;99.90
37050;DHT22;22958;51.232;6.826;2024-01-30T07:55:22;9.00;99.90
37050;DHT22;22958;51.232;6.826;2024-01-30T07:57:53;8.90;99.90
37050;DHT22;22958;51.232;6.826;2024-01-30T08:00:21;9.00;99.90
37050;DHT22;22958;51.232;6.826;2024-01-30T08:02:47;9.00;99.90
37050;DHT22;22958;51.232;6.826;2024-01-30T08:05:13;9.00;99.90
37050;DHT22;22958;51.232;6.826;2024-01-30T08:07:43;9.00;99.90
37050;DHT22;22958;51.232;6.826;2024-01-30T08:10:11;9.00;99.90
37050;DHT22;22958;51.232;6.826;2024-01-30T08:12:36;9.00;99.90
37050;DHT22;22958;51.232;6.826;2024-01-30T08:15:02;9.00;99.90
37050;DHT22;22958;51.232;6.826;2024-01-30T08:17:28;9.10;99.90
37050;DHT22;22958;51.232;6.826;2024-01-30T08:19:54;9.10;99.90
37050;DHT22;22958;51.232;6.826;2024-01-30T08:22:19;9.10;99.90
37050;DHT22;22958;51.232;6.826;2024-01-30T08:24:45;9.00;99.90
37050;DHT22;22958;51.232;6.826;2024-01-30T08:27:10;9.10;99.90
37050;DHT22;22958;51.232;6.826;2024-01-30T08:29:37;9.20;99.90
37050;DHT22;22958;51.232;6.826;2024-01-30T08:32:05;9.20;99.90
37050;DHT22;22958;51.232;6.826;2024-01-30T08:34:30;9.30;99.90
37050;DHT22;22958;51.232;6.826;2024-01-30T08:36:56;9.30;99.90
37050;DHT22;22958;51.232;6.826;2024-01-30T08:39:21;9.30;99.90
37050;DHT22;22958;51.232;6.826;2024-01-30T08:41:47;9.30;99.90
37050;DHT22;22958;51.232;6.826;2024-01-30T08:44:12;9.40;99.90
37050;DHT22;22958;51.232;6.826;2024-01-30T08:46:38;9.30;99.90
37050;DHT22;22958;51.232;6.826;2024-01-30T08:49:03;9.40;99.90
37050;DHT22;22958;51.232;6.826;2024-01-30T08:51:32;9.30;99.90
37050;DHT22;22958;51.232;6.826;2024-01-30T08:53:57;9.30;99.90
37050;DHT22;22958;51.232;6.826;2024-01-30T08:56:23;9.40;99.90
37050;DHT22;22958;51.232;6.826;2024-01-30T08:58:48;9.40;99.90
37050;DHT22;22958;51.232;6.826;2024-01-30T09:01:14;9.50;99.90
37050;DHT22;22958;51.232;6.826;2024-01-30T09:03:40;9.50;99.90
37050;DHT22;22958;51.232;6.826;2024-01-30T09:06:10;9.50;99.90
37050;DHT22;22958;51.232;6.826;2024-01-30T09:08:35;9.50;99.90
37050;DHT22;22958;51.232;6.826;2024-01-30T09:11:02;9.60;99.90
37050;DHT22;22958;51.232;6.826;2024-01-30T09:13:27;9.60;99.90
37050;DHT22;22958;51.232;6.826;2024-01-30T09:15:53;9.70;99.90
37050;DHT22;22958;51.232;6.826;2024-01-30T09:18:18;9.70;99.90
37050;DHT22;22958;51.232;6.826;2024-01-30T09:20:44;9.70;99.90
37050;DHT22;22958;51.232;6.826;2024-01-30T09:23:13;9.70;99.90
37050;DHT22;22958;51.232;6.826;2024-01-30T09:25:38;9.80;99.90
37050;DHT22;22958;51.232;6.826;2024-01-30T09:28:04;9.90;99.90
37050;DHT22;22958;51.232;6.826;2024-01-30T09:30:30;10.00;99.90
37050;DHT22;22958;51.232;6.826;2024-01-30T09:32:55;10.00;99.90
37050;DHT22;22958;51.232;6.826;2024-01-30T09:35:21;10.10;99.90
37050;DHT22;22958;51.232;6.826;2024-01-30T09:37:47;10.10;99.90
37050;DHT22;22958;51.232;6.826;2024-01-30T09:40:14;10.20;99.90
37050;DHT22;22958;51.232;6.826;2024-01-30T09:42:46;10.20;99.90
37050;DHT22;22958;51.232;6.826;2024-01-30T09:45:14;10.30;98.00
37050;DHT22;22958;51.232;6.826;2024-01-30T09:47:44;10.30;99.40
37050;DHT22;22958;51.232;6.826;2024-01-30T09:50:11;10.40;98.80
37050;DHT22;22958;51.232;6.826;2024-01-30T09:52:37;10.50;90.10
37050;DHT22;22958;51.232;6.826;2024-01-30T09:55:04;10.40;90.50
37050;DHT22;22958;51.232;6.826;2024-01-30T09:57:29;10.40;92.30
37050;DHT22;22958;51.232;6.826;2024-01-30T09:59:55;10.60;84.50
37050;DHT22;22958;51.232;6.826;2024-01-30T10:02:21;10.60;67.70
37050;DHT22;22958;51.232;6.826;2024-01-30T10:04:51;10.60;63.10
37050;DHT22;22958;51.232;6.826;2024-01-30T10:07:18;10.80;55.00
37050;DHT22;22958;51.232;6.826;2024-01-30T10:09:44;10.80;48.50
37050;DHT22;22958;51.232;6.826;2024-01-30T10:12:10;10.90;44.90
37050;DHT22;22958;51.232;6.826;2024-01-30T10:14:40;10.90;30.10
37050;DHT22;22958;51.232;6.826;2024-01-30T10:17:09;10.90;24.10
37050;DHT22;22958;51.232;6.826;2024-01-30T10:19:36;10.80;31.50
37050;DHT22;22958;51.232;6.826;2024-01-30T10:22:03;10.90;28.50
37050;DHT22;22958;51.232;6.826;2024-01-30T10:24:28;10.80;35.70
37050;DHT22;22958;51.232;6.826;2024-01-30T10:26:57;10.90;29.10
37050;DHT22;22958;51.232;6.826;2024-01-30T10:29:23;11.00;19.60
37050;DHT22;22958;51.232;6.826;2024-01-30T10:31:58;11.00;15.90
37050;DHT22;22958;51.232;6.826;2024-01-30T10:34:24;11.10;22.20
37050;DHT22;22958;51.232;6.826;2024-01-30T10:36:50;11.10;19.60
37050;DHT22;22958;51.232;6.826;2024-01-30T10:39:21;11.20;3.40
37050;DHT22;22958;51.232;6.826;2024-01-30T10:41:47;11.30;1.00
37050;DHT22;22958;51.232;6.826;2024-01-30T10:44:18;11.20;1.00
37050;DHT22;22958;51.232;6.826;2024-01-30T10:46:51;11.20;1.00
37050;DHT22;22958;51.232;6.826;2024-01-30T10:49:17;11.30;10.40
37050;DHT22;22958;51.232;6.826;2024-01-30T10:51:43;11.40;2.50
37050;DHT22;22958;51.232;6.826;2024-01-30T10:54:10;11.60;1.00
37050;DHT22;22958;51.232;6.826;2024-01-30T10:56:36;11.60;1.00
37050;DHT22;22958;51.232;6.826;2024-01-30T10:59:02;11.60;1.00
37050;DHT22;22958;51.232;6.826;2024-01-30T11:01:29;11.70;1.00
37050;DHT22;22958;51.232;6.826;2024-01-30T11:03:55;11.80;1.00
37050;DHT22;22958;51.232;6.826;2024-01-30T11:06:23;11.80;1.00
37050;DHT22;22958;51.232;6.826;2024-01-30T11:09:05;11.70;1.00
37050;DHT22;22958;51.232;6.826;2024-01-30T11:11:49;11.70;1.00
37050;DHT22;22958;51.232;6.826;2024-01-30T11:14:14;11.80;1.00
37050;DHT22;22958;51.232;6.826;2024-01-30T11:16:40;11.80;1.00
37050;DHT22;22958;51.232;6.826;2024-01-30T11:19:10;11.80;1.00
37050;DHT22;22958;51.232;6.826;2024-01-30T11:21:41;11.80;1.00
37050;DHT22;22958;51.232;6.826;2024-01-30T11:24:07;11.70;1.00
37050;DHT22;22958;51.232;6.826;2024-01-30T11:26:33;11.80;1.00
37050;DHT22;22958;51.232;6.826;2024-01-30T11:29:03;11.80;1.00
37050;DHT22;22958;51.232;6.826;2024-01-30T11:31:29;11.90;1.00
37050;DHT22;22958;51.232;6.826;2024-01-30T11:33:56;11.90;1.00
37050;DHT22;22958;51.232;6.826;2024-01-30T11:36:25;11.80;1.00
37050;DHT22;22958;51.232;6.826;2024-01-30T11:38:50;11.90;1.00
37050;DHT22;22958;51.232;6.826;2024-01-30T11:41:17;12.00;1.00
37050;DHT22;22958;51.232;6.826;2024-01-30T11:43:50;11.90;1.00
37050;DHT22;22958;51.232;6.826;2024-01-30T11:46:16;12.00;1.00
37050;DHT22;22958;51.232;6.826;2024-01-30T11:48:42;12.00;1.00
37050;DHT22;22958;51.232;6.826;2024-01-30T11:51:08;12.00;1.00
37050;DHT22;22958;51.232;6.826;2024-01-30T11:53:33;12.00;1.00
37050;DHT22;22958;51.232;6.826;2024-01-30T11:55:59;12.00;1.00
37050;DHT22;22958;51.232;6.826;2024-01-30T11:58:25;12.00;1.00
37050;DHT22;22958;51.232;6.826;2024-01-30T12:00:55;12.00;1.00
37050;DHT22;22958;51.232;6.826;2024-01-30T12:03:21;11.90;1.00
37050;DHT22;22958;51.232;6.826;2024-01-30T12:05:46;12.00;1.00
37050;DHT22;22958;51.232;6.826;2024-01-30T12:08:18;12.00;1.00
37050;DHT22;22958;51.232;6.826;2024-01-30T12:10:43;12.00;1.00
37050;DHT22;22958;51.232;6.826;2024-01-30T12:13:09;12.00;1.00
37050;DHT22;22958;51.232;6.826;2024-01-30T12:15:35;12.10;1.00
37050;DHT22;22958;51.232;6.826;2024-01-30T12:18:07;12.10;1.00
37050;DHT22;22958;51.232;6.826;2024-01-30T12:20:33;12.10;1.00
37050;DHT22;22958;51.232;6.826;2024-01-30T12:22:58;12.10;1.00
37050;DHT22;22958;51.232;6.826;2024-01-30T12:25:24;12.10;1.00
37050;DHT22;22958;51.232;6.826;2024-01-30T12:27:50;12.10;1.00
37050;DHT22;22958;51.232;6.826;2024-01-30T12:30:17;12.20;1.00
37050;DHT22;22958;51.232;6.826;2024-01-30T12:32:44;12.20;1.00
37050;DHT22;22958;51.232;6.826;2024-01-30T12:35:17;12.20;1.00
37050;DHT22;22958;51.232;6.826;2024-01-30T12:37:44;12.20;1.00
37050;DHT22;22958;51.232;6.826;2024-01-30T12:40:10;12.20;5.10
37050;DHT22;22958;51.232;6.826;2024-01-30T12:42:37;12.20;7.50
37050;DHT22;22958;51.232;6.826;2024-01-30T12:45:03;12.20;4.40
37050;DHT22;22958;51.232;6.826;2024-01-30T12:47:29;12.30;36.50
37050;DHT22;22958;51.232;6.826;2024-01-30T12:49:55;12.30;44.00
37050;DHT22;22958;51.232;6.826;2024-01-30T12:52:21;12.20;55.60
37050;DHT22;22958;51.232;6.826;2024-01-30T12:54:48;12.30;73.00
37050;DHT22;22958;51.232;6.826;2024-01-30T12:57:14;12.40;75.50
37050;DHT22;22958;51.232;6.826;2024-01-30T12:59:39;12.40;83.60
37050;DHT22;22958;51.232;6.826;2024-01-30T13:02:05;12.50;90.70
37050;DHT22;22958;51.232;6.826;2024-01-30T13:04:32;12.50;92.10
37050;DHT22;22958;51.232;6.826;2024-01-30T13:06:57;12.50;95.60
37050;DHT22;22958;51.232;6.826;2024-01-30T13:09:23;12.50;94.90
37050;DHT22;22958;51.232;6.826;2024-01-30T13:11:50;12.50;94.80
37050;DHT22;22958;51.232;6.826;2024-01-30T13:14:16;12.50;93.20
37050;DHT22;22958;51.232;6.826;2024-01-30T13:16:42;12.50;93.60
37050;DHT22;22958;51.232;6.826;2024-01-30T13:19:07;12.50;93.40
37050;DHT22;22958;51.232;6.826;2024-01-30T13:21:33;12.50;91.30
37050;DHT22;22958;51.232;6.826;2024-01-30T13:23:58;12.50;93.30
37050;DHT22;22958;51.232;6.826;2024-01-30T13:26:24;12.50;90.60
37050;DHT22;22958;51.232;6.826;2024-01-30T13:28:49;12.50;93.20
37050;DHT22;22958;51.232;6.826;2024-01-30T13:31:15;12.50;93.50
37050;DHT22;22958;51.232;6.826;2024-01-30T13:33:41;12.50;92.90
37050;DHT22;22958;51.232;6.826;2024-01-30T13:36:08;12.50;92.60
37050;DHT22;22958;51.232;6.826;2024-01-30T13:38:34;12.50;93.20
37050;DHT22;22958;51.232;6.826;2024-01-30T13:41:00;12.50;92.90
37050;DHT22;22958;51.232;6.826;2024-01-30T13:43:25;12.50;93.50
37050;DHT22;22958;51.232;6.826;2024-01-30T13:45:51;12.50;94.00
37050;DHT22;22958;51.232;6.826;2024-01-30T13:48:17;12.50;91.80
37050;DHT22;22958;51.232;6.826;2024-01-30T13:50:42;12.40;96.10
37050;DHT22;22958;51.232;6.826;2024-01-30T13:53:08;12.50;95.20
37050;DHT22;22958;51.232;6.826;2024-01-30T13:55:34;12.50;90.60
37050;DHT22;22958;51.232;6.826;2024-01-30T13:58:00;12.50;91.70
37050;DHT22;22958;51.232;6.826;2024-01-30T14:00:27;12.60;84.80
37050;DHT22;22958;51.232;6.826;2024-01-30T14:02:52;12.50;88.00
37050;DHT22;22958;51.232;6.826;2024-01-30T14:05:20;12.60;89.10
37050;DHT22;22958;51.232;6.826;2024-01-30T14:07:46;12.60;81.00
37050;DHT22;22958;51.232;6.826;2024-01-30T14:10:12;12.60;77.50
37050;DHT22;22958;51.232;6.826;2024-01-30T14:12:38;12.60;72.10
37050;DHT22;22958;51.232;6.826;2024-01-30T14:15:03;12.70;74.80
37050;DHT22;22958;51.232;6.826;2024-01-30T14:17:29;12.70;71.20
37050;DHT22;22958;51.232;6.826;2024-01-30T14:19:55;12.70;67.50
37050;DHT22;22958;51.232;6.826;2024-01-30T14:22:20;12.70;59.90
37050;DHT22;22958;51.232;6.826;2024-01-30T14:24:46;12.70;60.40
37050;DHT22;22958;51.232;6.826;2024-01-30T14:27:12;12.70;63.50
37050;DHT22;22958;51.232;6.826;2024-01-30T14:29:37;12.90;69.40
37050;DHT22;22958;51.232;6.826;2024-01-30T14:32:03;13.60;10.20
37050;DHT22;22958;51.232;6.826;2024-01-30T14:34:29;14.30;1.00
37050;DHT22;22958;51.232;6.826;2024-01-30T14:36:55;14.80;1.00
37050;DHT22;22958;51.232;6.826;2024-01-30T14:39:21;14.70;1.00
37050;DHT22;22958;51.232;6.826;2024-01-30T14:41:46;14.00;1.00
37050;DHT22;22958;51.232;6.826;2024-01-30T14:44:12;13.70;1.00
37050;DHT22;22958;51.232;6.826;2024-01-30T14:46:37;13.40;1.00
37050;DHT22;22958;51.232;6.826;2024-01-30T14:49:03;13.20;1.00
37050;DHT22;22958;51.232;6.826;2024-01-30T14:51:33;13.10;1.00
37050;DHT22;22958;51.232;6.826;2024-01-30T14:53:59;12.90;14.10
37050;DHT22;22958;51.232;6.826;2024-01-30T14:56:25;12.80;25.10
37050;DHT22;22958;51.232;6.826;2024-01-30T14:58:51;12.70;32.60
37050;DHT22;22958;51.232;6.826;2024-01-30T15:01:17;12.70;33.80
37050;DHT22;22958;51.232;6.826;2024-01-30T15:03:44;12.60;33.30
37050;DHT22;22958;51.232;6.826;2024-01-30T15:06:14;12.50;29.10
37050;DHT22;22958;51.232;6.826;2024-01-30T15:08:39;12.50;24.50
37050;DHT22;22958;51.232;6.826;2024-01-30T15:11:05;12.50;26.60
37050;DHT22;22958;51.232;6.826;2024-01-30T15:13:31;12.50;26.50
37050;DHT22;22958;51.232;6.826;2024-01-30T15:15:57;12.40;23.80
37050;DHT22;22958;51.232;6.826;2024-01-30T15:18:22;12.30;25.00
37050;DHT22;22958;51.232;6.826;2024-01-30T15:20:49;12.30;1.00
37050;DHT22;22958;51.232;6.826;2024-01-30T15:23:14;12.30;1.00
37050;DHT22;22958;51.232;6.826;2024-01-30T15:25:41;12.30;1.00
37050;DHT22;22958;51.232;6.826;2024-01-30T15:28:07;12.30;1.00
37050;DHT22;22958;51.232;6.826;2024-01-30T15:30:32;12.30;1.00
37050;DHT22;22958;51.232;6.826;2024-01-30T15:32:58;12.20;1.00
37050;DHT22;22958;51.232;6.826;2024-01-30T15:35:24;12.20;1.00